Time;durP1;ratioP1;P1;durP2;ratioP2;P2;SDS_P1;SDS_P2;PMS_P1;PMS_P2;Temp;Humidity;BMP_temperature;BMP_pressure;BME280_temperature;BME280_humidity;BME280_pressure;Samples;Min_cycle;Max_cycle;Signal;HPM_P1;HPM_P2
2022/06/19 00:01:37;;;;;;;;;;;19.50;67.20;;;18.85;62.16;96727.28;4209202;33;20039;-82
2022/06/19 00:04:06;;;;;;;;;;;19.60;67.10;;;18.85;62.42;96730.03;4235006;33;20080;-82
2022/06/19 00:06:35;;;;;;;;;;;19.50;67.10;;;18.83;62.46;96721.22;4212023;33;19980;-82
2022/06/19 00:09:04;;;;;;;;;;;19.50;67.20;;;18.83;62.39;96723.97;4235410;33;19910;-83
2022/06/19 00:11:33;;;;;;;;;;;19.50;67.20;;;18.83;62.41;96732.31;4211942;33;19945;-82
2022/06/19 00:14:03;;;;;;;;;;;19.50;67.20;;;18.83;62.56;96723.97;4235126;33;20088;-82
2022/06/19 00:16:32;;;;;;;;;;;19.50;67.10;;;18.83;62.35;96723.97;4235233;33;20226;-83
2022/06/19 00:19:01;;;;;;;;;;;19.50;67.20;;;18.81;62.34;96727.06;4211717;33;19902;-82
2022/06/19 00:21:30;;;;;;;;;;;19.50;67.20;;;18.81;62.54;96735.41;4235354;33;20028;-82
2022/06/19 00:23:58;;;;;;;;;;;19.50;67.20;;;18.82;62.51;96736.22;4211263;33;20083;-83
2022/06/19 00:26:27;;;;;;;;;;;19.50;67.20;;;18.80;62.46;96730.16;4211821;33;20022;-82
2022/06/19 00:28:56;;;;;;;;;;;19.50;67.20;;;18.80;62.38;96732.91;4235155;33;19910;-82
2022/06/19 00:31:26;;;;;;;;;;;19.50;67.20;;;18.79;62.42;96728.50;4235140;33;20480;-82
2022/06/19 00:33:55;;;;;;;;;;;19.50;67.10;;;18.79;62.24;96731.28;4234649;33;20226;-82
2022/06/19 00:36:26;;;;;;;;;;;19.50;67.10;;;18.78;62.43;96730.47;4236138;33;19910;-82
2022/06/19 00:38:55;;;;;;;;;;;19.50;67.30;;;18.78;62.28;96736.00;4211546;33;19902;-82
2022/06/19 00:41:24;;;;;;;;;;;19.50;67.10;;;18.78;62.59;96735.22;4236099;33;19902;-82
2022/06/19 00:44:00;;;;;;;;;;;19.40;67.10;;;18.77;62.64;96731.59;4211150;33;19907;-82
2022/06/19 00:46:45;;;;;;;;;;;19.40;67.10;;;18.77;62.26;96734.38;4211611;33;20023;-82
2022/06/19 00:49:18;;;;;;;;;;;19.40;67.10;;;18.76;62.60;96737.47;4211549;33;20321;-82
2022/06/19 00:51:46;;;;;;;;;;;19.40;67.90;;;18.76;62.27;96737.47;4234787;33;19902;-82
2022/06/19 00:54:17;;;;;;;;;;;19.40;67.10;;;18.74;62.30;96737.75;4211031;33;20133;-82
2022/06/19 00:56:46;;;;;;;;;;;19.40;67.00;;;18.74;62.30;96734.19;4211367;33;20134;-82
2022/06/19 00:59:14;;;;;;;;;;;19.40;67.10;;;18.73;62.04;96738.88;4234791;33;19909;-82
2022/06/19 01:01:44;;;;;;;;;;;19.40;67.00;;;18.73;62.19;96738.88;4235738;33;20106;-82
2022/06/19 01:04:18;;;;;;;;;;;19.40;67.00;;;18.73;62.54;96749.19;4234300;33;19902;-82
2022/06/19 01:06:48;;;;;;;;;;;19.40;67.20;;;18.71;62.36;96736.44;4211398;33;20110;-82
2022/06/19 01:09:17;;;;;;;;;;;19.40;67.00;;;18.72;62.33;96740.00;4211076;33;19902;-82
2022/06/19 01:11:46;;;;;;;;;;;19.40;67.00;;;18.70;62.29;96740.34;4235884;33;20092;-82
2022/06/19 01:14:16;;;;;;;;;;;19.40;67.00;;;18.70;62.48;96743.13;4234330;33;19932;-82
2022/06/19 01:16:46;;;;;;;;;;;19.40;67.10;;;18.70;62.57;96740.34;4234854;33;20117;-82
2022/06/19 01:19:21;;;;;;;;;;;19.40;67.00;;;18.70;62.35;96733.97;4234616;33;19958;-82
2022/06/19 01:21:53;;;;;;;;;;;19.40;67.00;;;18.68;62.48;96737.03;4220627;33;19909;-82
2022/06/19 01:24:29;;;;;;;;;;;19.40;67.10;;;18.68;62.45;96745.38;4263788;33;19901;-82
2022/06/19 01:26:59;;;;;;;;;;;19.40;67.00;;;18.68;62.35;96742.59;4239603;33;20031;-82
2022/06/19 01:29:27;;;;;;;;;;;19.40;67.10;;;18.68;62.37;96736.25;4262777;33;20403;-83
2022/06/19 01:31:56;;;;;;;;;;;19.40;67.10;;;18.68;62.29;96736.25;4263311;33;19902;-82
2022/06/19 01:34:32;;;;;;;;;;;19.40;67.10;;;18.67;62.62;96735.41;4262391;33;20117;-82
2022/06/19 01:37:04;;;;;;;;;;;19.40;67.30;;;18.67;62.51;96740.94;4264105;33;19902;-83
2022/06/19 01:39:44;;;;;;;;;;;19.40;67.10;;;18.65;62.62;96737.66;4262821;33;19991;-83
2022/06/19 01:42:15;;;;;;;;;;;19.30;67.20;;;18.66;62.39;96738.50;4264121;33;19902;-82
2022/06/19 01:44:44;;;;;;;;;;;19.30;67.20;;;18.65;62.29;96740.44;4238479;33;19902;-82
2022/06/19 01:47:13;;;;;;;;;;;19.30;67.10;;;18.65;62.36;96742.41;4262952;33;19909;-82
2022/06/19 01:49:45;;;;;;;;;;;19.30;67.30;;;18.64;62.61;96741.59;4262439;33;19902;-83
2022/06/19 01:52:14;;;;;;;;;;;19.30;67.40;;;18.63;62.43;96739.94;4262797;33;20124;-83
2022/06/19 01:54:45;;;;;;;;;;;19.30;67.20;;;18.64;62.69;96747.13;4263183;33;20051;-83
2022/06/19 01:57:15;;;;;;;;;;;19.30;67.30;;;18.63;62.87;96745.50;4262905;33;19908;-83
2022/06/19 01:59:44;;;;;;;;;;;19.30;67.30;;;18.63;62.76;96739.13;4262640;33;20091;-82
2022/06/19 02:02:14;;;;;;;;;;;19.30;67.30;;;18.63;62.47;96750.19;4263830;33;19901;-83
2022/06/19 02:04:43;;;;;;;;;;;19.30;67.20;;;18.61;62.54;96747.75;4263158;33;20137;-83
2022/06/19 02:07:14;;;;;;;;;;;19.30;67.20;;;18.61;62.61;96747.75;4239166;33;19910;-83
2022/06/19 02:09:42;;;;;;;;;;;19.30;67.30;;;18.60;62.61;96754.44;4263651;33;19902;-83
2022/06/19 02:12:11;;;;;;;;;;;19.30;67.30;;;18.60;62.68;96757.19;4262388;33;19902;-83
2022/06/19 02:14:41;;;;;;;;;;;19.30;67.30;;;18.60;62.63;96746.09;4261719;33;19908;-82
2022/06/19 02:17:13;;;;;;;;;;;19.30;67.30;;;18.58;62.61;96742.81;4263734;33;19901;-83
2022/06/19 02:19:42;;;;;;;;;;;19.30;67.10;;;18.59;62.92;96749.19;4262475;33;19916;-82
2022/06/19 02:22:12;;;;;;;;;;;19.30;67.60;;;18.60;62.68;96748.03;4262633;33;19996;-82
2022/06/19 02:24:40;;;;;;;;;;;19.30;67.30;;;18.58;62.58;96753.91;4262451;33;20217;-80
2022/06/19 02:27:09;;;;;;;;;;;19.30;67.40;;;18.58;62.81;96747.56;4262777;33;19909;-80
2022/06/19 02:29:41;;;;;;;;;;;19.20;67.40;;;18.57;62.63;96760.59;4263769;33;19901;-80
2022/06/19 02:32:19;;;;;;;;;;;19.20;67.20;;;18.57;62.73;96752.25;4263221;33;19916;-80
2022/06/19 02:34:48;;;;;;;;;;;19.30;67.40;;;18.57;62.72;96751.47;4210153;33;19950;-80
2022/06/19 02:37:21;;;;;;;;;;;19.20;67.20;;;18.55;62.87;96755.34;4233935;33;19909;-82
2022/06/19 02:39:55;;;;;;;;;;;19.20;67.30;;;18.55;62.55;96755.34;4233615;33;19902;-82
2022/06/19 02:42:34;;;;;;;;;;;19.20;67.40;;;18.55;62.66;96752.59;4233876;33;19903;-82
2022/06/19 02:45:07;;;;;;;;;;;19.20;67.50;;;18.56;62.96;96753.38;4209632;33;20035;-82
2022/06/19 02:47:37;;;;;;;;;;;19.20;67.40;;;18.55;62.34;96763.69;4233042;33;20111;-82
2022/06/19 02:50:07;;;;;;;;;;;19.20;67.20;;;18.54;62.67;96762.03;4261510;33;19902;-82
2022/06/19 02:52:35;;;;;;;;;;;19.20;67.40;;;18.53;62.71;96767.88;4263138;33;20128;-83
2022/06/19 02:55:05;;;;;;;;;;;19.20;67.50;;;18.53;62.80;96768.69;4261556;33;20066;-82
2022/06/19 02:57:33;;;;;;;;;;;19.20;67.40;;;18.54;62.46;96772.28;4238287;33;20013;-82
2022/06/19 03:00:02;;;;;;;;;;;19.20;67.40;;;18.54;62.44;96761.19;4238102;33;19925;-79
2022/06/19 03:02:32;;;;;;;;;;;19.20;67.40;;;18.52;62.40;96763.47;4263045;33;19908;-83
2022/06/19 03:05:03;;;;;;;;;;;19.20;67.30;;;18.54;62.58;96769.50;4237664;33;19961;-83
2022/06/19 03:07:32;;;;;;;;;;;19.20;67.30;;;18.53;62.62;96765.09;4261947;33;20190;-82
2022/06/19 03:10:01;;;;;;;;;;;19.20;67.10;;;18.54;62.43;96769.50;4237996;33;20137;-83
2022/06/19 03:12:29;;;;;;;;;;;19.20;67.20;;;18.53;62.67;96770.63;4261965;33;19908;-83
2022/06/19 03:14:58;;;;;;;;;;;19.20;67.20;;;18.54;62.24;96769.50;4261454;33;20689;-82
2022/06/19 03:17:27;;;;;;;;;;;19.20;67.10;;;18.54;62.50;96772.28;4238023;33;19901;-82
2022/06/19 03:19:57;;;;;;;;;;;19.20;67.20;;;18.54;62.55;96769.50;4238046;33;20121;-82
2022/06/19 03:22:26;;;;;;;;;;;19.20;67.10;;;18.54;62.39;96772.28;4238177;33;20015;-82
2022/06/19 03:24:55;;;;;;;;;;;19.20;67.10;;;18.54;62.42;96775.06;4285025;33;19902;-83
2022/06/19 03:27:23;;;;;;;;;;;19.20;67.20;;;18.54;62.72;96775.06;4238184;33;20242;-83
2022/06/19 03:29:52;;;;;;;;;;;19.20;67.20;;;18.54;62.31;96770.34;4262594;33;20135;-82
2022/06/19 03:32:21;;;;;;;;;;;19.20;66.90;;;18.55;62.24;96768.38;4261828;33;20012;-83
2022/06/19 03:34:49;;;;;;;;;;;19.20;66.90;;;18.55;62.34;96777.53;4261131;33;20476;-82
2022/06/19 03:37:19;;;;;;;;;;;19.30;67.10;;;18.57;62.28;96773.63;4262912;33;20120;-82
2022/06/19 03:39:50;;;;;;;;;;;19.30;67.10;;;18.58;62.28;96776.09;4237642;33;19917;-82
2022/06/19 03:42:19;;;;;;;;;;;19.30;66.70;;;18.59;62.29;96779.69;4261678;33;20094;-82
2022/06/19 03:44:50;;;;;;;;;;;19.30;66.70;;;18.59;62.17;96772.19;4243839;33;23700;-82
2022/06/19 03:47:24;;;;;;;;;;;19.30;66.70;;;18.61;62.01;96769.09;4232366;33;20098;-82
2022/06/19 03:49:53;;;;;;;;;;;19.30;66.60;;;18.62;61.89;96776.28;4233313;33;20087;-82
2022/06/19 03:52:23;;;;;;;;;;;19.30;66.50;;;18.62;61.85;96777.13;4256771;33;20025;-81
2022/06/19 03:54:52;;;;;;;;;;;19.30;66.30;;;18.64;61.81;96780.41;4232449;33;20036;-82
2022/06/19 03:57:20;;;;;;;;;;;19.30;66.50;;;18.65;61.85;96784.81;4232991;33;19909;-82
2022/06/19 03:59:49;;;;;;;;;;;19.40;66.30;;;18.66;61.41;96778.13;4232955;33;20268;-81
2022/06/19 04:02:18;;;;;;;;;;;19.40;65.90;;;18.68;61.15;96777.84;4232923;33;20127;-82
2022/06/19 04:04:47;;;;;;;;;;;19.40;65.80;;;18.69;61.25;96776.72;4208865;33;19902;-82
2022/06/19 04:07:16;;;;;;;;;;;19.40;65.90;;;18.70;61.33;96775.59;4209540;33;19909;-82
2022/06/19 04:09:46;;;;;;;;;;;19.40;65.80;;;18.70;61.48;96779.16;4232784;33;19902;-82
2022/06/19 04:12:15;;;;;;;;;;;19.40;65.80;;;18.71;61.48;96780.81;4232792;33;19969;-82
2022/06/19 04:14:44;;;;;;;;;;;19.40;65.70;;;18.74;61.32;96786.88;4232317;33;19902;-82
2022/06/19 04:17:13;;;;;;;;;;;19.40;65.70;;;18.74;61.45;96778.56;4209346;33;19909;-82
2022/06/19 04:19:42;;;;;;;;;;;19.40;65.70;;;18.76;61.48;96782.66;4217573;33;19901;-81
2022/06/19 04:22:10;;;;;;;;;;;19.50;66.00;;;18.77;61.43;96777.94;4261290;33;19944;-82
2022/06/19 04:24:39;;;;;;;;;;;19.50;66.10;;;18.80;61.78;96782.84;4237056;33;19976;-81
2022/06/19 04:27:10;;;;;;;;;;;19.50;66.20;;;18.79;61.27;96775.66;4261275;33;19909;-82
2022/06/19 04:29:38;;;;;;;;;;;19.50;65.90;;;18.82;62.04;96788.91;4261152;33;20093;-82
2022/06/19 04:32:08;;;;;;;;;;;19.50;66.20;;;18.82;61.66;96786.13;4261233;33;19901;-82
2022/06/19 04:34:36;;;;;;;;;;;19.50;66.40;;;18.84;62.03;96783.88;4236819;33;20244;-82
2022/06/19 04:37:05;;;;;;;;;;;19.60;66.50;;;18.84;61.94;96772.78;4238422;33;20129;-82
2022/06/19 04:39:34;;;;;;;;;;;19.60;66.70;;;18.86;62.18;96781.63;4263612;33;19923;-82
2022/06/19 04:42:03;;;;;;;;;;;19.60;66.70;;;18.86;61.83;96776.88;4240047;33;19901;-81
2022/06/19 04:44:33;;;;;;;;;;;19.60;66.60;;;18.88;61.86;96790.47;4239308;33;19909;-81
2022/06/19 04:47:02;;;;;;;;;;;19.60;66.70;;;18.89;62.21;96780.16;4239707;33;19902;-82
2022/06/19 04:49:30;;;;;;;;;;;19.60;66.80;;;18.90;62.22;96782.66;4263491;33;20154;-81
2022/06/19 04:51:59;;;;;;;;;;;19.60;67.10;;;18.93;62.47;96779.22;4263358;33;20121;-82
2022/06/19 04:54:28;;;;;;;;;;;19.60;67.20;;;18.95;62.65;96774.22;4239410;33;19909;-82
2022/06/19 04:56:56;;;;;;;;;;;19.60;67.10;;;18.97;62.28;96765.63;4239644;33;19994;-82
2022/06/19 04:59:25;;;;;;;;;;;19.70;67.10;;;18.97;62.81;96769.19;4263424;33;19941;-82
2022/06/19 05:01:55;;;;;;;;;;;19.70;67.20;;;18.99;62.84;96769.72;4239714;33;20313;-82
2022/06/19 05:04:24;;;;;;;;;;;19.70;67.20;;;19.01;62.32;96763.84;4239278;33;20213;-81
2022/06/19 05:06:53;;;;;;;;;;;19.70;67.20;;;19.02;62.43;96768.25;4263209;33;20443;-82
2022/06/19 05:09:21;;;;;;;;;;;19.70;66.90;;;19.06;62.27;96768.44;4263460;33;20252;-82
2022/06/19 05:11:50;;;;;;;;;;;19.80;67.60;;;19.08;62.36;96768.97;4263341;33;19909;-81
2022/06/19 05:14:19;;;;;;;;;;;19.80;66.80;;;19.10;62.32;96767.53;4262983;33;19981;-81
2022/06/19 05:16:47;;;;;;;;;;;19.80;67.00;;;19.12;62.08;96770.00;4263145;33;20330;-82
2022/06/19 05:19:18;;;;;;;;;;;19.80;66.70;;;19.14;62.09;96770.50;4263201;33;20217;-82
2022/06/19 05:21:46;;;;;;;;;;;19.80;66.60;;;19.15;62.22;96772.16;4263034;33;20332;-82
2022/06/19 05:24:15;;;;;;;;;;;19.80;66.60;;;19.15;62.17;96772.16;4238979;33;20305;-82
2022/06/19 05:26:44;;;;;;;;;;;19.90;66.70;;;19.16;62.06;96777.38;4264109;33;19910;-81
2022/06/19 05:29:13;;;;;;;;;;;19.80;66.50;;;19.16;61.90;96774.59;4263177;33;19902;-81
2022/06/19 05:31:42;;;;;;;;;;;19.90;66.50;;;19.17;61.98;96776.25;4262996;33;19902;-82
2022/06/19 05:34:11;;;;;;;;;;;19.90;66.50;;;19.18;61.85;96777.06;4238745;33;20046;-82
2022/06/19 05:36:41;;;;;;;;;;;19.90;66.50;;;19.17;62.00;96773.47;4262981;33;20035;-82
2022/06/19 05:39:09;;;;;;;;;;;19.90;66.50;;;19.17;62.00;96778.19;4263121;33;19909;-81
2022/06/19 05:41:39;;;;;;;;;;;19.90;66.50;;;19.15;61.83;96778.50;4238932;33;19908;-82
2022/06/19 05:44:08;;;;;;;;;;;19.90;66.70;;;19.16;62.02;96771.00;4262542;33;20372;-82
2022/06/19 05:46:37;;;;;;;;;;;19.90;66.60;;;19.17;62.08;96778.19;4262907;33;20116;-82
2022/06/19 05:49:06;;;;;;;;;;;19.80;66.40;;;19.17;62.01;96772.63;4263868;33;19925;-82
2022/06/19 05:51:34;;;;;;;;;;;19.90;66.60;;;19.18;62.09;96774.28;4238589;33;19965;-82
2022/06/19 05:54:04;;;;;;;;;;;19.90;67.40;;;19.19;61.95;96773.16;4262456;33;19902;-81
2022/06/19 05:56:33;;;;;;;;;;;19.90;66.50;;;19.20;62.07;96769.25;4262796;33;19924;-82
2022/06/19 05:59:02;;;;;;;;;;;19.90;66.50;;;19.22;61.96;96757.84;4238924;33;20366;-82
2022/06/19 06:01:31;;;;;;;;;;;19.90;66.70;;;19.23;61.83;96765.84;4238969;33;20036;-82
2022/06/19 06:04:00;;;;;;;;;;;19.90;66.50;;;19.25;61.99;96769.13;4238498;33;19902;-82
2022/06/19 06:06:31;;;;;;;;;;;19.90;66.40;;;19.27;61.89;96763.25;4263531;33;20154;-81
2022/06/19 06:09:00;;;;;;;;;;;20.00;66.50;;;19.29;61.70;96772.94;4238788;33;19902;-81
2022/06/19 06:11:30;;;;;;;;;;;20.00;66.30;;;19.30;61.93;96760.66;4263354;33;19902;-82
2022/06/19 06:13:59;;;;;;;;;;;20.00;66.30;;;19.34;61.83;96762.81;4238295;33;20009;-82
2022/06/19 06:16:28;;;;;;;;;;;20.00;66.20;;;19.35;61.89;96759.75;4262619;33;19909;-81
2022/06/19 06:18:56;;;;;;;;;;;20.00;66.20;;;19.37;61.96;96759.41;4262558;33;20299;-81
2022/06/19 06:21:25;;;;;;;;;;;20.00;66.20;;;19.39;61.55;96762.72;4262502;33;20113;-82
2022/06/19 06:23:54;;;;;;;;;;;20.10;66.30;;;19.40;61.88;96758.81;4286066;33;20108;-82
2022/06/19 06:26:24;;;;;;;;;;;20.10;66.30;;;19.41;61.88;96763.22;4238510;33;19902;-82
2022/06/19 06:28:56;;;;;;;;;;;20.10;66.50;;;19.41;61.69;96766.00;4238307;33;19902;-81
2022/06/19 06:31:24;;;;;;;;;;;20.10;66.20;;;19.42;61.98;96764.88;4262476;33;19999;-81
2022/06/19 06:33:53;;;;;;;;;;;20.10;66.40;;;19.42;62.11;96756.53;4261758;33;19913;-81
2022/06/19 06:36:23;;;;;;;;;;;20.10;66.40;;;19.43;61.92;96753.44;4238468;33;20295;-81
2022/06/19 06:38:52;;;;;;;;;;;20.10;66.40;;;19.45;61.71;96753.09;4262344;33;20031;-81
2022/06/19 06:41:20;;;;;;;;;;;20.10;66.30;;;19.45;61.92;96758.66;4262232;33;20129;-81
2022/06/19 06:43:49;;;;;;;;;;;20.10;66.40;;;19.49;61.69;96753.31;4261593;33;19908;-81
2022/06/19 06:46:23;;;;;;;;;;;20.20;66.40;;;19.51;61.89;96751.88;4238406;33;20128;-81
2022/06/19 06:48:53;;;;;;;;;;;20.20;66.20;;;19.53;61.72;96749.59;4238376;33;20100;-82
2022/06/19 06:51:24;;;;;;;;;;;20.20;66.20;;;19.56;61.65;96742.56;4238174;33;20069;-82
2022/06/19 06:53:53;;;;;;;;;;;20.30;66.20;;;19.59;61.47;96747.50;4261685;33;19909;-81
2022/06/19 06:56:21;;;;;;;;;;;20.20;66.80;;;19.60;61.46;96749.97;4263045;33;20040;-82
2022/06/19 06:58:50;;;;;;;;;;;20.20;66.00;;;19.62;61.65;96744.09;4261543;33;19901;-82
2022/06/19 07:01:23;;;;;;;;;;;20.30;66.10;;;19.63;61.41;96743.78;4263102;33;19908;-81
2022/06/19 07:03:55;;;;;;;;;;;20.30;66.00;;;19.66;61.66;96747.06;4235734;33;19935;-82
2022/06/19 07:06:25;;;;;;;;;;;20.30;66.00;;;19.67;61.34;96748.72;4210054;33;19902;-81
2022/06/19 07:08:54;;;;;;;;;;;20.30;65.90;;;19.69;61.61;96740.84;4209808;33;20103;-81
2022/06/19 07:11:24;;;;;;;;;;;20.30;66.00;;;19.70;61.22;96742.50;4233291;33;19903;-81
2022/06/19 07:13:53;;;;;;;;;;;20.40;65.90;;;19.71;61.08;96744.13;4232888;33;20160;-81
2022/06/19 07:16:23;;;;;;;;;;;20.40;65.80;;;19.73;61.40;96742.72;4233366;33;19902;-82
2022/06/19 07:18:52;;;;;;;;;;;20.40;65.80;;;19.75;61.06;96734.03;4233275;33;20023;-81
2022/06/19 07:21:21;;;;;;;;;;;20.40;65.80;;;19.76;61.09;96736.50;4233338;33;19909;-81
2022/06/19 07:23:50;;;;;;;;;;;20.40;65.70;;;19.77;61.07;96737.34;4209387;33;19902;-81
2022/06/19 07:26:20;;;;;;;;;;;20.40;65.70;;;19.78;60.89;96722.31;4209852;33;20095;-81
2022/06/19 07:28:49;;;;;;;;;;;20.50;65.80;;;19.79;61.10;96723.94;4234301;33;20231;-81
2022/06/19 07:31:17;;;;;;;;;;;20.50;65.70;;;19.81;61.09;96727.22;4233174;33;19902;-82
2022/06/19 07:33:47;;;;;;;;;;;20.50;65.70;;;19.82;61.29;96722.47;4209169;33;20122;-81
2022/06/19 07:36:18;;;;;;;;;;;20.40;65.60;;;19.83;61.21;96724.94;4209921;33;20129;-81
2022/06/19 07:38:47;;;;;;;;;;;20.50;65.70;;;19.84;61.26;96726.56;4233067;33;19975;-81
2022/06/19 07:41:15;;;;;;;;;;;20.50;65.70;;;19.85;61.11;96719.88;4233201;33;20241;-81
2022/06/19 07:43:45;;;;;;;;;;;20.50;65.60;;;19.86;60.98;96717.94;4249757;33;20292;-81
2022/06/19 07:46:14;;;;;;;;;;;20.50;65.70;;;19.87;61.23;96714.06;4237774;33;20065;-81
2022/06/19 07:51:31;;;;;;;;;;;20.50;65.60;;;19.89;61.08;96712.59;4261683;33;20217;-82
2022/06/19 07:54:00;;;;;;;;;;;20.50;65.50;;;19.88;61.10;96713.72;4219767;33;19902;-81
2022/06/19 07:56:28;;;;;;;;;;;20.50;65.60;;;19.90;61.01;96702.28;4233053;33;19993;-81
2022/06/19 07:58:58;;;;;;;;;;;20.60;65.50;;;19.90;60.98;96705.06;4233954;33;19902;-82
2022/06/19 08:01:26;;;;;;;;;;;20.60;65.50;;;19.91;60.93;96703.94;4209492;33;19902;-81
2022/06/19 08:03:55;;;;;;;;;;;20.60;65.50;;;19.92;61.16;96694.44;4208910;33;20083;-82
2022/06/19 08:06:25;;;;;;;;;;;20.60;65.60;;;19.92;61.45;96700.84;4233088;33;19903;-82
2022/06/19 08:08:55;;;;;;;;;;;20.60;65.70;;;19.92;60.84;96700.00;4232872;33;19995;-82
2022/06/19 08:11:24;;;;;;;;;;;20.60;65.60;;;19.92;61.50;96700.84;4211246;33;20433;-82
2022/06/19 08:13:53;;;;;;;;;;;20.60;65.60;;;19.92;61.21;96700.84;4223372;33;19917;-82
2022/06/19 08:16:22;;;;;;;;;;;20.60;65.60;;;19.93;61.19;96705.25;4240160;33;20044;-81
2022/06/19 08:18:53;;;;;;;;;;;20.60;66.40;;;19.92;61.09;96698.06;4239963;33;19909;-82
2022/06/19 08:21:22;;;;;;;;;;;20.60;65.60;;;19.91;61.18;96696.44;4264035;33;20050;-82
2022/06/19 08:23:51;;;;;;;;;;;20.60;65.60;;;19.91;61.32;96690.03;4239645;33;19971;-81
2022/06/19 08:26:26;;;;;;;;;;;20.60;65.70;;;19.90;61.15;96686.44;4287975;33;19983;-82
2022/06/19 08:28:58;;;;;;;;;;;20.60;65.80;;;19.89;61.22;96682.03;4278176;33;20393;-82
2022/06/19 08:31:27;;;;;;;;;;;20.60;65.80;;;19.89;61.69;96678.41;4211730;33;20108;-82
2022/06/19 08:33:55;;;;;;;;;;;20.60;66.00;;;19.87;61.16;96681.53;4211258;33;19909;-82
2022/06/19 08:36:25;;;;;;;;;;;20.50;65.90;;;19.88;61.48;96676.81;4211786;33;20476;-82
2022/06/19 08:38:55;;;;;;;;;;;20.60;66.00;;;19.87;61.72;96669.59;4235272;33;19941;-82
2022/06/19 08:41:50;;;;;;;;;;;20.60;66.10;;;19.86;61.65;96662.38;4211497;33;20198;-82
2022/06/19 08:45:01;;;;;;;;;;;20.60;66.10;;;19.84;61.66;96668.22;4211407;33;20025;-82
2022/06/19 08:47:41;;;;;;;;;;;20.50;66.20;;;19.83;62.04;96657.44;4155594;34;20121;-82
2022/06/19 08:50:18;;;;;;;;;;;20.50;66.40;;;19.83;62.06;96660.22;4178142;34;20142;-81
2022/06/19 08:52:59;;;;;;;;;;;20.50;66.40;;;19.82;62.06;96656.63;4158787;33;20316;-81
2022/06/19 08:55:35;;;;;;;;;;;20.50;66.50;;;19.81;61.78;96656.94;4183219;33;19917;-81
2022/06/19 08:58:10;;;;;;;;;;;20.50;66.60;;;19.80;62.22;96647.81;4206769;33;19903;-81
2022/06/19 09:00:49;;;;;;;;;;;20.50;66.50;;;19.80;62.05;96642.25;4183539;33;20165;-81
2022/06/19 09:06:23;;;;;;;;;;;20.50;66.60;;;19.80;62.10;96647.81;4206574;33;20065;-81
2022/06/19 09:09:03;;;;;;;;;;;20.50;66.70;;;19.80;62.01;96642.25;4206672;33;20095;-82
2022/06/19 09:12:07;;;;;;;;;;;20.50;66.60;;;19.80;62.09;96635.84;4183436;33;19907;-82
2022/06/19 09:14:41;;;;;;;;;;;20.50;66.80;;;19.80;62.43;96642.25;4206071;33;19903;-82
2022/06/19 09:17:12;;;;;;;;;;;20.50;66.90;;;19.78;62.12;96638.97;4206784;33;20120;-82
2022/06/19 09:19:50;;;;;;;;;;;20.50;66.80;;;19.78;62.27;96638.97;4183275;33;20368;-81
2022/06/19 09:22:47;;;;;;;;;;;20.50;66.90;;;19.77;62.31;96640.91;4206247;33;19902;-81
2022/06/19 09:25:31;;;;;;;;;;;20.50;67.00;;;19.76;62.19;96636.50;4179905;33;19910;-81
2022/06/19 09:28:05;;;;;;;;;;;20.50;67.00;;;19.76;62.85;96630.13;4183351;33;20076;-81
2022/06/19 09:30:41;;;;;;;;;;;20.50;67.00;;;19.76;62.41;96624.56;4183192;33;19902;-81
2022/06/19 09:33:14;;;;;;;;;;;20.50;67.00;;;19.76;62.30;96628.16;4206958;33;20294;-82
2022/06/19 09:35:46;;;;;;;;;;;20.50;67.00;;;19.75;62.04;96629.28;4182970;33;19947;-81
2022/06/19 09:38:22;;;;;;;;;;;20.50;67.00;;;19.74;62.49;96624.06;4206345;33;19910;-82
2022/06/19 09:41:02;;;;;;;;;;;20.50;66.90;;;19.73;62.35;96625.19;4206328;33;19983;-82
2022/06/19 09:43:35;;;;;;;;;;;20.40;66.80;;;19.73;62.12;96609.38;4182633;33;19910;-82
2022/06/19 09:46:09;;;;;;;;;;;20.50;67.00;;;19.74;62.42;96624.06;4206276;33;19903;-82
2022/06/19 09:48:41;;;;;;;;;;;20.50;67.10;;;19.74;62.78;96615.72;4187639;33;20127;-82
2022/06/19 09:51:13;;;;;;;;;;;20.50;67.20;;;19.74;62.56;96615.72;4220772;33;19984;-83
2022/06/19 09:53:45;;;;;;;;;;;20.40;67.10;;;19.74;62.74;96618.50;4239170;33;19909;-83
2022/06/19 09:56:19;;;;;;;;;;;20.50;67.30;;;19.72;62.57;96616.06;4266424;33;20067;-83
2022/06/19 09:59:15;;;;;;;;;;;20.40;67.20;;;19.73;62.77;96612.16;4290058;33;19902;-84
2022/06/19 10:01:55;;;;;;;;;;;20.40;67.20;;;19.72;62.82;96610.50;4238301;33;19902;-83
2022/06/19 10:05:13;;;;;;;;;;;20.40;67.20;;;19.72;62.59;96606.91;4238276;33;20047;-84
2022/06/19 10:11:04;;;;;;;;;;;20.40;67.20;;;19.71;62.69;96605.25;4262907;33;20232;-84
2022/06/19 10:13:46;;;;;;;;;;;20.40;67.20;;;19.71;62.73;96600.53;4238628;33;19909;-84
2022/06/19 10:16:20;;;;;;;;;;;20.40;67.20;;;19.71;62.87;96594.16;4262878;33;19902;-84
2022/06/19 10:18:52;;;;;;;;;;;20.40;67.20;;;19.71;62.95;96594.16;4238772;33;19902;-84
2022/06/19 10:24:17;;;;;;;;;;;20.40;67.30;;;19.71;63.02;96594.97;4262463;33;19901;-84
2022/06/19 10:26:51;;;;;;;;;;;20.40;67.50;;;19.70;62.74;96586.94;4239583;33;20099;-84
2022/06/19 10:29:38;;;;;;;;;;;20.40;67.40;;;19.70;62.67;96586.94;4262683;33;20455;-83
2022/06/19 10:32:30;;;;;;;;;;;20.40;67.30;;;19.68;62.95;96584.50;4262632;33;20107;-83
2022/06/19 10:35:12;;;;;;;;;;;20.40;67.40;;;19.69;62.80;96585.31;4261265;33;19901;-83
2022/06/19 10:37:51;;;;;;;;;;;20.40;67.40;;;19.68;62.81;96578.94;4262286;33;19902;-83
2022/06/19 10:40:28;;;;;;;;;;;20.40;67.40;;;19.69;62.86;96596.41;4262246;33;19950;-83
2022/06/19 10:43:07;;;;;;;;;;;20.40;67.30;;;19.67;62.83;96587.63;4262341;33;19908;-83
2022/06/19 10:45:38;;;;;;;;;;;20.40;67.30;;;19.68;62.50;96595.63;4262255;33;20332;-83
2022/06/19 10:48:26;;;;;;;;;;;20.40;67.30;;;19.68;62.62;96595.63;4238570;33;20136;-83
2022/06/19 10:51:12;;;;;;;;;;;20.40;67.40;;;19.68;62.87;96590.06;4261970;33;20040;-83
2022/06/19 10:54:07;;;;;;;;;;;20.40;67.30;;;19.68;62.85;96578.16;4214424;33;20404;-83
2022/06/19 10:56:42;;;;;;;;;;;20.40;67.20;;;19.68;62.51;96578.94;4214845;33;20098;-83
2022/06/19 10:59:25;;;;;;;;;;;20.40;67.20;;;19.68;62.87;96572.59;4214873;33;19908;-83
2022/06/19 11:05:31;;;;;;;;;;;20.40;67.30;;;19.69;62.89;96579.75;4205622;33;19924;-83
2022/06/19 11:08:01;;;;;;;;;;;20.30;67.30;;;19.68;62.54;96567.03;4214722;33;19979;-83
2022/06/19 11:10:36;;;;;;;;;;;20.40;67.30;;;19.68;62.62;96576.16;4238038;33;19908;-83
2022/06/19 11:13:05;;;;;;;;;;;20.40;67.30;;;19.68;62.74;96564.25;4238061;33;19917;-83
2022/06/19 11:15:35;;;;;;;;;;;20.40;67.20;;;19.67;62.49;96560.66;4238227;33;20260;-83
2022/06/19 11:18:22;;;;;;;;;;;20.40;67.20;;;19.69;62.89;96563.09;4214831;33;19902;-83
2022/06/19 11:21:03;;;;;;;;;;;20.40;67.30;;;19.69;62.68;96557.53;4214376;33;20237;-83
2022/06/19 11:23:39;;;;;;;;;;;20.40;67.20;;;19.68;62.83;96562.28;4181462;33;19902;-83
2022/06/19 11:26:51;;;;;;;;;;;20.40;67.40;;;19.68;63.13;96550.38;4182002;33;19988;-83
2022/06/19 11:30:07;;;;;;;;;;;20.30;67.30;;;19.68;62.66;96556.72;4167369;33;20080;-84
2022/06/19 11:33:07;;;;;;;;;;;20.40;67.20;;;19.69;62.40;96544.47;4131668;33;19917;-83
2022/06/19 11:35:45;;;;;;;;;;;20.40;67.20;;;19.68;62.45;96542.84;4158999;33;19945;-83
2022/06/19 11:38:17;;;;;;;;;;;20.40;66.80;;;19.69;62.48;96538.09;4181969;33;19903;-83
2022/06/19 11:40:49;;;;;;;;;;;20.40;67.10;;;19.70;62.64;96536.94;4159234;33;20078;-83
2022/06/19 11:43:34;;;;;;;;;;;20.40;67.00;;;19.70;62.72;96536.94;4205573;33;19911;-83
2022/06/19 11:46:05;;;;;;;;;;;20.40;67.10;;;19.70;62.62;96536.94;4158342;33;20168;-83
2022/06/19 11:48:34;;;;;;;;;;;20.40;67.20;;;19.70;62.80;96542.50;4205852;33;19903;-83
2022/06/19 11:51:03;;;;;;;;;;;20.40;67.20;;;19.70;62.74;96548.06;4188133;33;20145;-83
2022/06/19 11:53:37;;;;;;;;;;;20.40;67.20;;;19.71;62.59;96538.59;4257755;33;20009;-83
2022/06/19 11:56:26;;;;;;;;;;;20.40;67.10;;;19.71;62.68;96538.59;4261495;33;19909;-83